sensor_id;sensor_type;location;lat;lon;timestamp;pressure;altitude;pressure_sealevel;temperature;humidity
13974;BME280;7060;43.770;4.008;2023-01-31T00:00:50;101895.28;;;4.79;54.40
13974;BME280;7060;43.770;4.008;2023-01-31T00:03:20;101893.63;;;4.77;54.25
13974;BME280;7060;43.770;4.008;2023-01-31T00:05:48;101891.84;;;4.77;53.83
13974;BME280;7060;43.770;4.008;2023-01-31T00:08:17;101887.47;;;4.76;54.37
13974;BME280;7060;43.770;4.008;2023-01-31T00:10:45;101883.03;;;4.77;53.87
13974;BME280;7060;43.770;4.008;2023-01-31T00:13:14;101891.19;;;4.74;53.87
13974;BME280;7060;43.770;4.008;2023-01-31T00:15:44;101880.66;;;4.72;54.08
13974;BME280;7060;43.770;4.008;2023-01-31T00:18:12;101885.19;;;4.70;53.73
13974;BME280;7060;43.770;4.008;2023-01-31T00:20:41;101884.31;;;4.70;53.42
13974;BME280;7060;43.770;4.008;2023-01-31T00:23:09;101878.56;;;4.62;54.02
13974;BME280;7060;43.770;4.008;2023-01-31T00:25:38;101876.91;;;4.59;53.95
13974;BME280;7060;43.770;4.008;2023-01-31T00:28:07;101885.25;;;4.52;53.53
13974;BME280;7060;43.770;4.008;2023-01-31T00:30:35;101891.56;;;4.49;54.36
13974;BME280;7060;43.770;4.008;2023-01-31T00:33:05;101876.88;;;4.43;54.22
13974;BME280;7060;43.770;4.008;2023-01-31T00:35:40;101885.59;;;4.46;54.63
13974;BME280;7060;43.770;4.008;2023-01-31T00:38:12;101884.09;;;4.40;54.34
13974;BME280;7060;43.770;4.008;2023-01-31T00:40:41;101878.41;;;4.30;55.03
13974;BME280;7060;43.770;4.008;2023-01-31T00:43:09;101877.63;;;4.28;54.85
13974;BME280;7060;43.770;4.008;2023-01-31T00:45:39;101883.56;;;4.16;55.21
13974;BME280;7060;43.770;4.008;2023-01-31T00:48:09;101890.22;;;4.06;54.87
13974;BME280;7060;43.770;4.008;2023-01-31T00:50:38;101877.22;;;4.01;55.03
13974;BME280;7060;43.770;4.008;2023-01-31T00:53:06;101874.88;;;3.95;56.08
13974;BME280;7060;43.770;4.008;2023-01-31T00:55:35;101882.19;;;3.90;55.58
13974;BME280;7060;43.770;4.008;2023-01-31T00:58:04;101876.19;;;3.87;56.10
13974;BME280;7060;43.770;4.008;2023-01-31T01:00:33;101869.97;;;3.88;55.96
13974;BME280;7060;43.770;4.008;2023-01-31T01:03:02;101877.50;;;3.95;55.50
13974;BME280;7060;43.770;4.008;2023-01-31T01:05:32;101870.06;;;4.03;56.00
13974;BME280;7060;43.770;4.008;2023-01-31T01:08:02;101859.19;;;4.09;55.56
13974;BME280;7060;43.770;4.008;2023-01-31T01:10:32;101867.50;;;4.02;56.40
13974;BME280;7060;43.770;4.008;2023-01-31T01:13:00;101858.13;;;3.95;55.52
13974;BME280;7060;43.770;4.008;2023-01-31T01:15:29;101867.25;;;3.89;55.80
13974;BME280;7060;43.770;4.008;2023-01-31T01:17:59;101869.84;;;3.91;55.90
13974;BME280;7060;43.770;4.008;2023-01-31T01:20:28;101851.13;;;3.76;55.98
13974;BME280;7060;43.770;4.008;2023-01-31T01:22:59;101843.09;;;3.61;56.58
13974;BME280;7060;43.770;4.008;2023-01-31T01:25:28;101854.78;;;3.74;56.33
13974;BME280;7060;43.770;4.008;2023-01-31T01:27:59;101860.34;;;3.68;56.21
13974;BME280;7060;43.770;4.008;2023-01-31T01:30:27;101850.88;;;3.64;57.37
13974;BME280;7060;43.770;4.008;2023-01-31T01:32:59;101850.03;;;3.63;57.24
13974;BME280;7060;43.770;4.008;2023-01-31T01:35:28;101856.47;;;3.58;56.63
13974;BME280;7060;43.770;4.008;2023-01-31T01:37:56;101854.88;;;3.54;57.54
13974;BME280;7060;43.770;4.008;2023-01-31T01:40:35;101840.69;;;3.37;57.41
13974;BME280;7060;43.770;4.008;2023-01-31T01:43:04;101857.16;;;3.42;57.85
13974;BME280;7060;43.770;4.008;2023-01-31T01:45:33;101865.88;;;3.45;57.41
13974;BME280;7060;43.770;4.008;2023-01-31T01:48:05;101844.16;;;3.38;57.88
13974;BME280;7060;43.770;4.008;2023-01-31T01:50:39;101866.31;;;3.54;58.47
13974;BME280;7060;43.770;4.008;2023-01-31T01:53:11;101867.69;;;3.63;58.54
13974;BME280;7060;43.770;4.008;2023-01-31T01:55:45;101870.41;;;3.79;58.49
13974;BME280;7060;43.770;4.008;2023-01-31T01:58:18;101878.53;;;3.93;57.17
13974;BME280;7060;43.770;4.008;2023-01-31T02:00:50;101849.59;;;3.90;57.23
13974;BME280;7060;43.770;4.008;2023-01-31T02:03:19;101865.03;;;4.16;57.69
13974;BME280;7060;43.770;4.008;2023-01-31T02:05:50;101866.97;;;4.30;57.43
13974;BME280;7060;43.770;4.008;2023-01-31T02:08:22;101872.72;;;4.38;56.66
13974;BME280;7060;43.770;4.008;2023-01-31T02:10:55;101876.94;;;4.42;56.57
13974;BME280;7060;43.770;4.008;2023-01-31T02:13:26;101882.94;;;4.46;55.92
13974;BME280;7060;43.770;4.008;2023-01-31T02:15:56;101884.72;;;4.45;56.37
13974;BME280;7060;43.770;4.008;2023-01-31T02:18:26;101875.75;;;4.48;55.92
13974;BME280;7060;43.770;4.008;2023-01-31T02:24:40;101889.25;;;4.43;56.49
13974;BME280;7060;43.770;4.008;2023-01-31T02:27:35;101880.69;;;4.38;55.97
13974;BME280;7060;43.770;4.008;2023-01-31T02:30:33;101890.63;;;4.33;56.75
13974;BME280;7060;43.770;4.008;2023-01-31T02:33:15;101886.56;;;4.26;57.11
13974;BME280;7060;43.770;4.008;2023-01-31T02:35:55;101851.41;;;4.06;58.11
13974;BME280;7060;43.770;4.008;2023-01-31T02:38:34;101894.84;;;4.37;57.78
13974;BME280;7060;43.770;4.008;2023-01-31T02:41:13;101891.63;;;4.48;57.13
13974;BME280;7060;43.770;4.008;2023-01-31T02:43:51;101895.69;;;4.55;56.93
13974;BME280;7060;43.770;4.008;2023-01-31T02:49:35;101894.34;;;4.81;56.68
13974;BME280;7060;43.770;4.008;2023-01-31T02:52:16;101846.22;;;4.55;56.48
13974;BME280;7060;43.770;4.008;2023-01-31T02:54:59;101897.41;;;4.90;56.25
13974;BME280;7060;43.770;4.008;2023-01-31T02:57:50;101900.66;;;4.95;56.01
13974;BME280;7060;43.770;4.008;2023-01-31T03:00:21;101866.13;;;4.79;55.58
13974;BME280;7060;43.770;4.008;2023-01-31T03:02:50;101902.81;;;5.04;55.43
13974;BME280;7060;43.770;4.008;2023-01-31T03:05:20;101901.88;;;5.05;54.93
13974;BME280;7060;43.770;4.008;2023-01-31T03:07:51;101900.16;;;5.04;54.98
13974;BME280;7060;43.770;4.008;2023-01-31T03:10:49;101898.53;;;5.02;54.60
13974;BME280;7060;43.770;4.008;2023-01-31T03:13:34;101905.72;;;5.00;54.90
13974;BME280;7060;43.770;4.008;2023-01-31T03:16:17;101901.59;;;4.94;55.16
13974;BME280;7060;43.770;4.008;2023-01-31T03:19:13;101863.19;;;4.68;55.33
13974;BME280;7060;43.770;4.008;2023-01-31T03:21:48;101899.25;;;4.88;55.98
13974;BME280;7060;43.770;4.008;2023-01-31T03:24:20;101891.38;;;4.87;55.95
13974;BME280;7060;43.770;4.008;2023-01-31T03:26:54;101889.38;;;4.92;55.53
13974;BME280;7060;43.770;4.008;2023-01-31T03:29:25;101861.06;;;4.75;55.50
13974;BME280;7060;43.770;4.008;2023-01-31T03:31:59;101896.06;;;4.99;55.02
13974;BME280;7060;43.770;4.008;2023-01-31T03:34:31;101893.13;;;5.03;55.48
13974;BME280;7060;43.770;4.008;2023-01-31T03:37:06;101889.56;;;5.04;55.40
13974;BME280;7060;43.770;4.008;2023-01-31T03:39:52;101885.13;;;5.05;54.66
13974;BME280;7060;43.770;4.008;2023-01-31T03:42:25;101876.22;;;5.06;54.73
13974;BME280;7060;43.770;4.008;2023-01-31T03:45:00;101884.00;;;5.09;54.98
13974;BME280;7060;43.770;4.008;2023-01-31T03:47:35;101883.94;;;5.10;54.46
13974;BME280;7060;43.770;4.008;2023-01-31T03:50:09;101881.19;;;5.12;54.65
13974;BME280;7060;43.770;4.008;2023-01-31T03:52:43;101878.53;;;5.12;54.71
13974;BME280;7060;43.770;4.008;2023-01-31T03:55:15;101833.16;;;4.85;54.05
13974;BME280;7060;43.770;4.008;2023-01-31T03:57:49;101867.88;;;5.14;53.76
13974;BME280;7060;43.770;4.008;2023-01-31T04:00:20;101871.22;;;5.17;53.65
13974;BME280;7060;43.770;4.008;2023-01-31T04:03:00;101876.03;;;5.26;53.52
13974;BME280;7060;43.770;4.008;2023-01-31T04:05:32;101880.63;;;5.23;53.73
13974;BME280;7060;43.770;4.008;2023-01-31T04:08:04;101875.41;;;5.21;53.66
13974;BME280;7060;43.770;4.008;2023-01-31T04:10:34;101881.50;;;5.23;53.16
13974;BME280;7060;43.770;4.008;2023-01-31T04:13:03;101883.97;;;5.26;53.16
13974;BME280;7060;43.770;4.008;2023-01-31T04:15:32;101882.09;;;5.28;53.03
13974;BME280;7060;43.770;4.008;2023-01-31T04:18:01;101879.53;;;5.27;52.63
13974;BME280;7060;43.770;4.008;2023-01-31T04:20:31;101877.66;;;5.29;52.56
13974;BME280;7060;43.770;4.008;2023-01-31T04:23:00;101881.31;;;5.26;52.75
13974;BME280;7060;43.770;4.008;2023-01-31T04:25:32;101873.38;;;5.26;52.87
13974;BME280;7060;43.770;4.008;2023-01-31T04:28:00;101868.84;;;5.28;52.40
13974;BME280;7060;43.770;4.008;2023-01-31T04:30:29;101869.59;;;5.30;51.93
13974;BME280;7060;43.770;4.008;2023-01-31T04:32:57;101873.88;;;5.33;52.28
13974;BME280;7060;43.770;4.008;2023-01-31T04:35:26;101876.34;;;5.36;51.85
13974;BME280;7060;43.770;4.008;2023-01-31T04:37:55;101872.69;;;5.38;51.89
13974;BME280;7060;43.770;4.008;2023-01-31T04:40:23;101875.25;;;5.40;51.47
13974;BME280;7060;43.770;4.008;2023-01-31T04:42:53;101876.78;;;5.44;51.03
13974;BME280;7060;43.770;4.008;2023-01-31T04:45:22;101874.13;;;5.44;50.68
13974;BME280;7060;43.770;4.008;2023-01-31T04:47:50;101876.47;;;5.50;50.77
13974;BME280;7060;43.770;4.008;2023-01-31T04:50:19;101863.69;;;5.57;50.38
13974;BME280;7060;43.770;4.008;2023-01-31T04:52:48;101859.91;;;5.61;50.20
13974;BME280;7060;43.770;4.008;2023-01-31T04:55:18;101855.38;;;5.63;50.30
13974;BME280;7060;43.770;4.008;2023-01-31T04:57:47;101847.44;;;5.63;50.38
13974;BME280;7060;43.770;4.008;2023-01-31T05:00:18;101843.84;;;5.64;50.11
13974;BME280;7060;43.770;4.008;2023-01-31T05:02:47;101848.81;;;5.70;49.56
13974;BME280;7060;43.770;4.008;2023-01-31T05:05:16;101841.53;;;5.73;49.32
13974;BME280;7060;43.770;4.008;2023-01-31T05:07:45;101847.34;;;5.80;49.07
13974;BME280;7060;43.770;4.008;2023-01-31T05:10:14;101841.88;;;5.83;48.74
13974;BME280;7060;43.770;4.008;2023-01-31T05:12:45;101841.91;;;5.97;47.80
13974;BME280;7060;43.770;4.008;2023-01-31T05:15:14;101844.97;;;6.05;48.04
13974;BME280;7060;43.770;4.008;2023-01-31T05:17:45;101853.53;;;6.10;47.48
13974;BME280;7060;43.770;4.008;2023-01-31T05:20:19;101856.66;;;6.17;47.25
13974;BME280;7060;43.770;4.008;2023-01-31T05:22:48;101872.41;;;6.20;47.26
13974;BME280;7060;43.770;4.008;2023-01-31T05:25:17;101868.53;;;6.26;46.74
13974;BME280;7060;43.770;4.008;2023-01-31T05:27:46;101870.53;;;6.22;47.02
13974;BME280;7060;43.770;4.008;2023-01-31T05:30:14;101879.34;;;6.23;47.16
13974;BME280;7060;43.770;4.008;2023-01-31T05:32:45;101887.41;;;6.21;47.14
13974;BME280;7060;43.770;4.008;2023-01-31T05:35:15;101896.41;;;6.19;46.73
13974;BME280;7060;43.770;4.008;2023-01-31T05:37:45;101900.94;;;6.17;47.24
13974;BME280;7060;43.770;4.008;2023-01-31T05:40:14;101907.19;;;6.16;46.55
13974;BME280;7060;43.770;4.008;2023-01-31T05:42:43;101913.75;;;6.10;47.49
13974;BME280;7060;43.770;4.008;2023-01-31T05:45:13;101917.50;;;6.06;47.40
13974;BME280;7060;43.770;4.008;2023-01-31T05:47:46;101915.13;;;6.01;47.63
13974;BME280;7060;43.770;4.008;2023-01-31T05:50:15;101930.44;;;5.96;47.92
13974;BME280;7060;43.770;4.008;2023-01-31T05:52:49;101927.13;;;5.77;47.93
13974;BME280;7060;43.770;4.008;2023-01-31T05:55:17;101936.78;;;5.78;48.18
13974;BME280;7060;43.770;4.008;2023-01-31T05:57:47;101937.13;;;5.72;48.17
13974;BME280;7060;43.770;4.008;2023-01-31T06:00:16;101947.47;;;5.61;48.04
13974;BME280;7060;43.770;4.008;2023-01-31T06:02:46;101939.88;;;5.55;48.40
13974;BME280;7060;43.770;4.008;2023-01-31T06:05:16;101941.13;;;5.48;49.56
13974;BME280;7060;43.770;4.008;2023-01-31T06:07:45;101940.44;;;5.44;49.48
13974;BME280;7060;43.770;4.008;2023-01-31T06:10:13;101948.41;;;5.44;49.43
13974;BME280;7060;43.770;4.008;2023-01-31T06:12:42;101950.28;;;5.42;49.88
13974;BME280;7060;43.770;4.008;2023-01-31T06:15:11;101968.16;;;5.38;49.44
13974;BME280;7060;43.770;4.008;2023-01-31T06:17:39;101976.25;;;5.35;49.40
13974;BME280;7060;43.770;4.008;2023-01-31T06:20:10;101992.25;;;5.34;49.12
13974;BME280;7060;43.770;4.008;2023-01-31T06:22:40;101997.63;;;5.32;49.45
13974;BME280;7060;43.770;4.008;2023-01-31T06:25:09;102003.09;;;5.29;48.94
13974;BME280;7060;43.770;4.008;2023-01-31T06:27:37;102005.16;;;5.24;49.11
13974;BME280;7060;43.770;4.008;2023-01-31T06:30:07;102002.91;;;5.17;49.46
13974;BME280;7060;43.770;4.008;2023-01-31T06:32:36;102001.72;;;5.05;49.62
13974;BME280;7060;43.770;4.008;2023-01-31T06:35:05;102009.41;;;4.94;50.15
13974;BME280;7060;43.770;4.008;2023-01-31T06:37:35;102015.84;;;4.88;49.82
13974;BME280;7060;43.770;4.008;2023-01-31T06:40:05;102014.84;;;4.73;50.30
13974;BME280;7060;43.770;4.008;2023-01-31T06:42:33;102012.00;;;4.59;50.59
13974;BME280;7060;43.770;4.008;2023-01-31T06:45:02;102013.78;;;4.41;51.00
13974;BME280;7060;43.770;4.008;2023-01-31T06:47:31;102027.00;;;4.41;51.08
13974;BME280;7060;43.770;4.008;2023-01-31T06:50:00;102027.81;;;4.25;51.37
13974;BME280;7060;43.770;4.008;2023-01-31T06:52:28;102030.13;;;4.14;52.10
13974;BME280;7060;43.770;4.008;2023-01-31T06:54:58;102032.50;;;4.01;52.56
13974;BME280;7060;43.770;4.008;2023-01-31T06:57:27;102034.06;;;3.86;52.91
13974;BME280;7060;43.770;4.008;2023-01-31T06:59:56;102029.34;;;3.74;53.21
13974;BME280;7060;43.770;4.008;2023-01-31T07:02:24;102023.53;;;3.66;54.20
13974;BME280;7060;43.770;4.008;2023-01-31T07:04:53;102027.53;;;3.56;54.83
13974;BME280;7060;43.770;4.008;2023-01-31T07:07:22;102027.03;;;3.48;54.37
13974;BME280;7060;43.770;4.008;2023-01-31T07:09:51;102034.34;;;3.41;54.39
13974;BME280;7060;43.770;4.008;2023-01-31T07:12:21;102028.38;;;3.37;54.52
13974;BME280;7060;43.770;4.008;2023-01-31T07:14:49;102029.91;;;3.23;55.16
13974;BME280;7060;43.770;4.008;2023-01-31T07:17:18;102026.59;;;3.18;54.58
13974;BME280;7060;43.770;4.008;2023-01-31T07:19:47;102044.34;;;3.14;54.29
13974;BME280;7060;43.770;4.008;2023-01-31T07:22:16;102042.00;;;3.08;54.66
13974;BME280;7060;43.770;4.008;2023-01-31T07:24:44;102030.63;;;3.06;54.73
13974;BME280;7060;43.770;4.008;2023-01-31T07:27:14;102040.00;;;2.93;55.31
13974;BME280;7060;43.770;4.008;2023-01-31T07:29:45;102047.19;;;2.89;55.04
13974;BME280;7060;43.770;4.008;2023-01-31T07:32:13;102042.09;;;2.85;54.99
13974;BME280;7060;43.770;4.008;2023-01-31T07:34:42;102050.25;;;2.80;55.75
13974;BME280;7060;43.770;4.008;2023-01-31T07:37:10;102051.09;;;2.81;55.35
13974;BME280;7060;43.770;4.008;2023-01-31T07:39:40;102041.41;;;2.81;55.69
13974;BME280;7060;43.770;4.008;2023-01-31T07:42:08;102047.38;;;2.85;55.95
13974;BME280;7060;43.770;4.008;2023-01-31T07:44:37;102046.38;;;3.09;56.05
13974;BME280;7060;43.770;4.008;2023-01-31T07:47:07;102046.97;;;3.55;55.67
13974;BME280;7060;43.770;4.008;2023-01-31T07:49:35;102045.56;;;4.04;53.82
13974;BME280;7060;43.770;4.008;2023-01-31T07:52:04;102052.50;;;4.61;53.33
13974;BME280;7060;43.770;4.008;2023-01-31T07:54:34;102055.00;;;5.18;51.78
13974;BME280;7060;43.770;4.008;2023-01-31T07:57:03;102066.69;;;5.64;51.66
13974;BME280;7060;43.770;4.008;2023-01-31T07:59:31;102068.97;;;5.87;50.75
13974;BME280;7060;43.770;4.008;2023-01-31T08:02:00;102067.44;;;5.99;49.45
13974;BME280;7060;43.770;4.008;2023-01-31T08:04:48;102073.91;;;6.10;49.29
13974;BME280;7060;43.770;4.008;2023-01-31T08:07:16;102080.84;;;6.29;49.36
13974;BME280;7060;43.770;4.008;2023-01-31T08:09:45;102080.66;;;6.63;49.40
13974;BME280;7060;43.770;4.008;2023-01-31T08:12:15;102074.53;;;7.07;49.40
13974;BME280;7060;43.770;4.008;2023-01-31T08:14:44;102090.44;;;7.53;48.54
13974;BME280;7060;43.770;4.008;2023-01-31T08:17:13;102088.56;;;7.97;48.01
13974;BME280;7060;43.770;4.008;2023-01-31T08:19:41;102090.00;;;8.44;46.49
13974;BME280;7060;43.770;4.008;2023-01-31T08:22:12;102097.63;;;8.77;45.72
13974;BME280;7060;43.770;4.008;2023-01-31T08:24:40;102102.06;;;9.03;45.54
13974;BME280;7060;43.770;4.008;2023-01-31T08:27:10;102106.66;;;9.28;44.79
13974;BME280;7060;43.770;4.008;2023-01-31T08:29:38;102100.47;;;9.53;42.81
13974;BME280;7060;43.770;4.008;2023-01-31T08:32:07;102096.03;;;9.66;42.23
13974;BME280;7060;43.770;4.008;2023-01-31T08:34:36;102097.91;;;9.77;42.25
13974;BME280;7060;43.770;4.008;2023-01-31T08:37:04;102099.94;;;9.99;41.58
13974;BME280;7060;43.770;4.008;2023-01-31T08:39:34;102103.13;;;10.16;41.41
13974;BME280;7060;43.770;4.008;2023-01-31T08:42:03;102097.00;;;10.27;40.92
13974;BME280;7060;43.770;4.008;2023-01-31T08:44:32;102105.31;;;10.35;40.91
13974;BME280;7060;43.770;4.008;2023-01-31T08:47:00;102099.75;;;10.38;40.38
13974;BME280;7060;43.770;4.008;2023-01-31T08:49:29;102110.63;;;10.48;40.42
13974;BME280;7060;43.770;4.008;2023-01-31T08:51:59;102112.56;;;10.46;40.50
13974;BME280;7060;43.770;4.008;2023-01-31T08:54:28;102116.66;;;10.39;40.67
13974;BME280;7060;43.770;4.008;2023-01-31T08:56:58;102118.25;;;10.41;40.85
13974;BME280;7060;43.770;4.008;2023-01-31T08:59:28;102114.16;;;10.48;40.79
13974;BME280;7060;43.770;4.008;2023-01-31T09:01:57;102122.31;;;10.47;40.39
13974;BME280;7060;43.770;4.008;2023-01-31T09:04:25;102126.44;;;10.51;40.19
13974;BME280;7060;43.770;4.008;2023-01-31T09:06:54;102120.47;;;10.47;39.37
13974;BME280;7060;43.770;4.008;2023-01-31T09:09:23;102118.13;;;10.43;39.25
13974;BME280;7060;43.770;4.008;2023-01-31T09:11:54;102127.75;;;10.45;39.57
13974;BME280;7060;43.770;4.008;2023-01-31T09:14:24;102137.13;;;10.51;39.38
13974;BME280;7060;43.770;4.008;2023-01-31T09:16:53;102139.19;;;10.47;40.11
13974;BME280;7060;43.770;4.008;2023-01-31T09:19:22;102148.06;;;10.48;40.40
13974;BME280;7060;43.770;4.008;2023-01-31T09:21:50;102150.28;;;10.54;40.18
13974;BME280;7060;43.770;4.008;2023-01-31T09:24:19;102154.44;;;10.58;40.04
13974;BME280;7060;43.770;4.008;2023-01-31T09:26:48;102150.75;;;10.48;40.61
13974;BME280;7060;43.770;4.008;2023-01-31T09:29:17;102152.16;;;10.41;40.55
13974;BME280;7060;43.770;4.008;2023-01-31T09:31:50;102162.53;;;10.33;41.04
13974;BME280;7060;43.770;4.008;2023-01-31T09:34:21;102169.25;;;10.26;41.14
13974;BME280;7060;43.770;4.008;2023-01-31T09:36:49;102164.59;;;10.16;41.43
13974;BME280;7060;43.770;4.008;2023-01-31T09:39:19;102166.72;;;10.11;41.50
13974;BME280;7060;43.770;4.008;2023-01-31T09:41:49;102170.34;;;10.10;40.87
13974;BME280;7060;43.770;4.008;2023-01-31T09:44:22;102172.06;;;10.11;42.03
13974;BME280;7060;43.770;4.008;2023-01-31T09:46:58;102172.28;;;10.21;41.26
13974;BME280;7060;43.770;4.008;2023-01-31T09:49:31;102139.78;;;10.02;41.43
13974;BME280;7060;43.770;4.008;2023-01-31T09:52:04;102179.00;;;10.27;42.33
13974;BME280;7060;43.770;4.008;2023-01-31T09:54:36;102180.59;;;10.29;41.29
13974;BME280;7060;43.770;4.008;2023-01-31T09:57:13;102187.97;;;10.26;40.73
13974;BME280;7060;43.770;4.008;2023-01-31T09:59:47;102184.91;;;10.19;40.74
13974;BME280;7060;43.770;4.008;2023-01-31T10:02:40;102187.88;;;10.14;40.66
13974;BME280;7060;43.770;4.008;2023-01-31T10:05:18;102181.38;;;10.18;41.46
13974;BME280;7060;43.770;4.008;2023-01-31T10:07:55;102167.03;;;10.07;41.05
13974;BME280;7060;43.770;4.008;2023-01-31T10:10:32;102193.97;;;10.29;41.36
13974;BME280;7060;43.770;4.008;2023-01-31T10:13:10;102190.13;;;10.33;40.10
13974;BME280;7060;43.770;4.008;2023-01-31T10:15:42;102187.75;;;10.29;40.34
13974;BME280;7060;43.770;4.008;2023-01-31T10:18:17;102182.94;;;10.34;40.37
13974;BME280;7060;43.770;4.008;2023-01-31T10:20:50;102190.97;;;10.34;40.98
13974;BME280;7060;43.770;4.008;2023-01-31T10:23:26;102187.75;;;10.41;40.83
13974;BME280;7060;43.770;4.008;2023-01-31T10:25:58;102198.34;;;10.43;40.55
13974;BME280;7060;43.770;4.008;2023-01-31T10:28:33;102198.25;;;10.44;39.85
13974;BME280;7060;43.770;4.008;2023-01-31T10:31:09;102191.50;;;10.39;39.97
13974;BME280;7060;43.770;4.008;2023-01-31T10:33:46;102193.31;;;10.38;39.82
13974;BME280;7060;43.770;4.008;2023-01-31T10:36:23;102191.19;;;10.43;39.92
13974;BME280;7060;43.770;4.008;2023-01-31T10:38:59;102197.88;;;10.49;39.97
13974;BME280;7060;43.770;4.008;2023-01-31T10:41:40;102182.69;;;10.49;39.66
13974;BME280;7060;43.770;4.008;2023-01-31T10:44:18;102185.47;;;10.61;39.18
13974;BME280;7060;43.770;4.008;2023-01-31T10:46:50;102139.84;;;10.38;39.74
13974;BME280;7060;43.770;4.008;2023-01-31T10:49:23;102173.25;;;10.69;40.05
13974;BME280;7060;43.770;4.008;2023-01-31T10:52:06;102177.09;;;10.78;39.51
13974;BME280;7060;43.770;4.008;2023-01-31T10:54:48;102170.22;;;10.86;39.74
13974;BME280;7060;43.770;4.008;2023-01-31T10:57:21;102177.56;;;10.96;39.42
13974;BME280;7060;43.770;4.008;2023-01-31T10:59:50;102174.47;;;11.02;39.39
13974;BME280;7060;43.770;4.008;2023-01-31T11:02:22;102175.47;;;11.12;39.30
13974;BME280;7060;43.770;4.008;2023-01-31T11:04:55;102169.66;;;11.18;38.48
13974;BME280;7060;43.770;4.008;2023-01-31T11:07:24;102168.56;;;11.20;38.81
13974;BME280;7060;43.770;4.008;2023-01-31T11:09:55;102170.69;;;11.28;38.70
13974;BME280;7060;43.770;4.008;2023-01-31T11:12:40;102152.19;;;11.36;38.26
13974;BME280;7060;43.770;4.008;2023-01-31T11:15:15;102157.72;;;11.46;38.69
13974;BME280;7060;43.770;4.008;2023-01-31T11:17:44;102152.53;;;11.56;38.33
13974;BME280;7060;43.770;4.008;2023-01-31T11:20:26;102148.59;;;11.60;38.31
13974;BME280;7060;43.770;4.008;2023-01-31T11:22:57;102142.03;;;11.64;38.01
13974;BME280;7060;43.770;4.008;2023-01-31T11:25:29;102140.38;;;11.74;38.12
13974;BME280;7060;43.770;4.008;2023-01-31T11:28:00;102135.53;;;11.79;38.07
13974;BME280;7060;43.770;4.008;2023-01-31T11:30:33;102129.28;;;11.89;37.24
13974;BME280;7060;43.770;4.008;2023-01-31T11:33:03;102123.34;;;11.97;37.92
13974;BME280;7060;43.770;4.008;2023-01-31T11:35:34;102123.59;;;12.05;37.02
13974;BME280;7060;43.770;4.008;2023-01-31T11:38:18;102123.25;;;12.10;36.41
13974;BME280;7060;43.770;4.008;2023-01-31T11:40:48;102121.78;;;12.17;37.23
13974;BME280;7060;43.770;4.008;2023-01-31T11:43:24;102113.00;;;12.26;36.49
13974;BME280;7060;43.770;4.008;2023-01-31T11:45:56;102110.91;;;12.41;36.56
13974;BME280;7060;43.770;4.008;2023-01-31T11:48:27;102115.91;;;12.45;36.95
13974;BME280;7060;43.770;4.008;2023-01-31T11:51:01;102112.59;;;12.53;36.41
13974;BME280;7060;43.770;4.008;2023-01-31T11:53:36;102104.78;;;12.61;35.82
13974;BME280;7060;43.770;4.008;2023-01-31T11:56:11;102100.88;;;12.65;34.88
13974;BME280;7060;43.770;4.008;2023-01-31T11:58:40;102103.56;;;12.65;35.37
13974;BME280;7060;43.770;4.008;2023-01-31T12:01:14;102079.88;;;12.70;34.88
13974;BME280;7060;43.770;4.008;2023-01-31T12:03:46;102088.28;;;12.77;34.90
13974;BME280;7060;43.770;4.008;2023-01-31T12:06:31;102088.63;;;12.83;34.34
13974;BME280;7060;43.770;4.008;2023-01-31T12:09:02;102082.53;;;12.81;35.67
13974;BME280;7060;43.770;4.008;2023-01-31T12:11:32;102075.56;;;12.79;34.87
13974;BME280;7060;43.770;4.008;2023-01-31T12:14:12;102068.13;;;12.82;35.21
13974;BME280;7060;43.770;4.008;2023-01-31T12:16:41;102064.59;;;12.82;34.71
13974;BME280;7060;43.770;4.008;2023-01-31T12:19:20;102066.69;;;12.78;34.95
13974;BME280;7060;43.770;4.008;2023-01-31T12:22:00;102070.81;;;12.82;35.03
13974;BME280;7060;43.770;4.008;2023-01-31T12:24:39;102060.94;;;12.83;34.72
13974;BME280;7060;43.770;4.008;2023-01-31T12:27:18;102062.16;;;12.79;34.39
13974;BME280;7060;43.770;4.008;2023-01-31T12:30:10;102059.00;;;12.74;34.46
13974;BME280;7060;43.770;4.008;2023-01-31T12:32:55;102066.44;;;12.70;34.76
13974;BME280;7060;43.770;4.008;2023-01-31T12:35:37;102061.69;;;12.74;33.91
13974;BME280;7060;43.770;4.008;2023-01-31T12:38:21;102063.66;;;12.72;34.63
13974;BME280;7060;43.770;4.008;2023-01-31T12:40:58;102062.28;;;12.77;33.75
13974;BME280;7060;43.770;4.008;2023-01-31T12:43:46;102062.88;;;12.81;33.90
13974;BME280;7060;43.770;4.008;2023-01-31T12:46:24;102054.97;;;12.79;34.06
13974;BME280;7060;43.770;4.008;2023-01-31T12:51:55;102058.25;;;12.83;34.12
13974;BME280;7060;43.770;4.008;2023-01-31T12:54:45;102058.13;;;12.84;34.34
13974;BME280;7060;43.770;4.008;2023-01-31T12:57:25;102056.16;;;12.86;34.73
13974;BME280;7060;43.770;4.008;2023-01-31T13:00:05;102049.69;;;12.89;32.86
13974;BME280;7060;43.770;4.008;2023-01-31T13:02:44;102044.44;;;12.87;32.96
13974;BME280;7060;43.770;4.008;2023-01-31T13:05:26;102046.28;;;12.87;32.61
13974;BME280;7060;43.770;4.008;2023-01-31T13:08:01;102040.06;;;12.86;32.73
13974;BME280;7060;43.770;4.008;2023-01-31T13:10:36;102039.56;;;12.93;32.79
13974;BME280;7060;43.770;4.008;2023-01-31T13:13:13;102037.78;;;13.03;33.29
13974;BME280;7060;43.770;4.008;2023-01-31T13:15:46;102033.84;;;13.07;33.06
13974;BME280;7060;43.770;4.008;2023-01-31T13:18:16;102034.56;;;13.09;33.29
13974;BME280;7060;43.770;4.008;2023-01-31T13:20:49;102019.38;;;13.19;31.67
13974;BME280;7060;43.770;4.008;2023-01-31T13:23:22;102015.97;;;13.17;32.16
13974;BME280;7060;43.770;4.008;2023-01-31T13:26:02;102024.03;;;13.17;32.16
13974;BME280;7060;43.770;4.008;2023-01-31T13:28:35;102012.31;;;13.18;32.36
13974;BME280;7060;43.770;4.008;2023-01-31T13:31:14;101960.13;;;12.90;32.85
13974;BME280;7060;43.770;4.008;2023-01-31T13:33:48;101997.91;;;13.19;32.37
13974;BME280;7060;43.770;4.008;2023-01-31T13:36:23;102001.16;;;13.22;32.41
13974;BME280;7060;43.770;4.008;2023-01-31T13:38:55;101996.94;;;13.20;32.60
13974;BME280;7060;43.770;4.008;2023-01-31T13:41:28;101997.91;;;13.19;32.54
13974;BME280;7060;43.770;4.008;2023-01-31T13:43:59;101992.66;;;13.17;32.61